Time;durP1;ratioP1;P1;durP2;ratioP2;P2;SDS_P1;SDS_P2;PMS_P1;PMS_P2;Temp;Humidity;BMP_temperature;BMP_pressure;BME280_temperature;BME280_humidity;BME280_pressure;Samples;Min_cycle;Max_cycle;Signal;HPM_P1;HPM_P2
2023/04/28 00:01:50;;;;;;;22.73;16.95;;;7.70;99.90;;;;;;5028116;28;20275;-82
2023/04/28 00:04:21;;;;;;;27.33;17.48;;;7.50;99.90;;;;;;5025605;28;20201;-81
2023/04/28 00:06:49;;;;;;;21.52;16.92;;;7.60;99.90;;;;;;5025785;28;20212;-81
2023/04/28 00:09:16;;;;;;;31.27;15.75;;;7.50;99.90;;;;;;5017377;28;20758;-81
2023/04/28 00:11:46;;;;;;;25.23;16.52;;;7.70;99.90;;;;;;5032805;28;20208;-81
2023/04/28 00:14:13;;;;;;;19.77;16.27;;;7.70;99.90;;;;;;5025681;28;20209;-81
2023/04/28 00:16:41;;;;;;;23.88;16.25;;;7.80;99.90;;;;;;5018025;28;20283;-81
2023/04/28 00:19:07;;;;;;;22.23;14.80;;;7.90;99.90;;;;;;5022019;28;20293;-81
2023/04/28 00:21:35;;;;;;;23.67;16.35;;;7.70;99.90;;;;;;5028014;28;20200;-80
2023/04/28 00:24:01;;;;;;;27.20;15.98;;;7.50;99.90;;;;;;5027872;28;20221;-83
2023/04/28 00:26:28;;;;;;;23.23;15.68;;;7.50;99.90;;;;;;5037624;28;20209;-80
2023/04/28 00:28:55;;;;;;;23.48;14.88;;;7.40;99.90;;;;;;5033350;28;20204;-78
2023/04/28 00:31:22;;;;;;;19.98;16.02;;;7.50;99.90;;;;;;5033658;28;20441;-82
2023/04/28 00:33:48;;;;;;;26.85;17.45;;;7.30;99.90;;;;;;5008046;28;20236;-81
2023/04/28 00:36:15;;;;;;;24.33;16.10;;;7.40;99.90;;;;;;5031337;28;20220;-80
2023/04/28 00:38:42;;;;;;;21.20;16.73;;;7.50;99.90;;;;;;5032350;28;20212;-79
2023/04/28 00:41:10;;;;;;;25.33;17.58;;;7.70;99.90;;;;;;5022879;28;20237;-82
2023/04/28 00:43:49;;;;;;;21.63;15.60;;;7.70;99.90;;;;;;5033782;28;20432;-80
2023/04/28 00:46:25;;;;;;;18.65;14.20;;;7.70;99.90;;;;;;5029306;28;20210;-83
2023/04/28 00:48:52;;;;;;;29.35;15.23;;;7.70;99.90;;;;;;5012997;28;20236;-82
2023/04/28 00:51:20;;;;;;;17.55;15.15;;;7.70;99.90;;;;;;5027762;28;20220;-80
2023/04/28 00:53:47;;;;;;;21.58;14.02;;;7.80;99.90;;;;;;5014390;28;20502;-79
2023/04/28 00:56:14;;;;;;;20.20;14.88;;;7.90;99.90;;;;;;5028286;28;20260;-80
2023/04/28 00:58:42;;;;;;;20.15;13.30;;;7.90;99.90;;;;;;5031807;28;20212;-79
2023/04/28 01:01:09;;;;;;;21.25;14.48;;;7.80;99.90;;;;;;5035192;28;20234;-79
2023/04/28 01:03:38;;;;;;;25.98;15.23;;;7.80;99.90;;;;;;5036115;28;20255;-79
2023/04/28 01:06:07;;;;;;;20.20;15.13;;;7.50;99.90;;;;;;5014594;28;20541;-80
2023/04/28 01:08:37;;;;;;;23.63;18.60;;;7.60;99.90;;;;;;5020302;28;20216;-81
2023/04/28 01:11:04;;;;;;;20.90;14.75;;;7.70;99.90;;;;;;5024460;28;20389;-79
2023/04/28 01:13:31;;;;;;;24.30;15.80;;;7.70;99.90;;;;;;5024021;28;20340;-81
2023/04/28 01:15:58;;;;;;;19.77;14.80;;;7.70;99.90;;;;;;5031795;28;20234;-80
2023/04/28 01:18:25;;;;;;;21.90;15.90;;;7.80;99.90;;;;;;5030942;28;20209;-82
2023/04/28 01:20:53;;;;;;;18.40;14.48;;;7.70;99.90;;;;;;5031704;28;20303;-80
2023/04/28 01:23:20;;;;;;;22.17;15.63;;;7.60;99.90;;;;;;5027152;28;20382;-82
2023/04/28 01:25:46;;;;;;;21.35;14.40;;;7.60;99.90;;;;;;5024685;28;20209;-81
2023/04/28 01:28:13;;;;;;;22.50;16.42;;;7.50;99.90;;;;;;5037772;28;20201;-78
2023/04/28 01:30:41;;;;;;;37.65;17.30;;;7.50;99.90;;;;;;5025931;28;20232;-78
2023/04/28 01:33:09;;;;;;;24.02;16.45;;;7.40;99.90;;;;;;5022331;28;20459;-78
2023/04/28 01:35:36;;;;;;;21.60;16.30;;;7.40;99.90;;;;;;5034825;28;20201;-79
2023/04/28 01:38:03;;;;;;;23.75;16.83;;;7.20;99.90;;;;;;5028954;28;20252;-82
2023/04/28 01:40:31;;;;;;;24.38;18.23;;;7.30;99.90;;;;;;5029188;28;20225;-81
2023/04/28 01:42:57;;;;;;;24.88;17.95;;;7.20;99.90;;;;;;5031189;28;20209;-79
2023/04/28 01:45:25;;;;;;;22.98;17.33;;;7.10;99.90;;;;;;5034868;28;20255;-80
2023/04/28 01:47:52;;;;;;;25.45;16.67;;;7.00;99.90;;;;;;5035294;28;20213;-81
2023/04/28 01:50:19;;;;;;;22.98;16.55;;;7.00;99.90;;;;;;5025460;28;20221;-79
2023/04/28 01:52:47;;;;;;;20.15;16.65;;;7.10;99.90;;;;;;5028987;28;20509;-81
2023/04/28 01:55:13;;;;;;;20.48;15.38;;;7.00;99.90;;;;;;5030571;28;20214;-81
2023/04/28 01:57:40;;;;;;;25.40;17.65;;;7.10;99.90;;;;;;5039114;28;20272;-80
2023/04/28 02:00:08;;;;;;;25.08;17.02;;;7.00;99.90;;;;;;5033203;28;20262;-81
2023/04/28 02:02:35;;;;;;;27.80;18.00;;;7.10;99.90;;;;;;5033381;28;20215;-85
2023/04/28 02:05:04;;;;;;;19.25;15.95;;;7.10;99.90;;;;;;5024546;28;20216;-79
2023/04/28 02:07:30;;;;;;;24.90;17.40;;;7.10;99.90;;;;;;5029729;28;20252;-79
2023/04/28 02:09:57;;;;;;;25.00;18.40;;;7.00;99.90;;;;;;5041305;28;20208;-81
2023/04/28 02:12:25;;;;;;;21.08;15.80;;;6.80;99.90;;;;;;5031209;28;20197;-86
2023/04/28 02:14:52;;;;;;;24.13;16.88;;;6.90;99.90;;;;;;5042766;28;20234;-82
2023/04/28 02:17:19;;;;;;;26.45;16.08;;;7.00;99.90;;;;;;5035724;28;20197;-78
2023/04/28 02:19:53;;;;;;;19.88;16.40;;;7.10;99.90;;;;;;5033012;28;20228;-80
2023/04/28 02:22:20;;;;;;;24.05;16.50;;;7.00;99.90;;;;;;5020342;28;20497;-79
2023/04/28 02:24:47;;;;;;;24.20;16.52;;;6.90;99.90;;;;;;5015131;28;20205;-80
2023/04/28 02:27:14;;;;;;;27.20;16.83;;;7.00;99.90;;;;;;5026095;28;20315;-80
2023/04/28 02:29:41;;;;;;;22.17;16.23;;;7.00;99.90;;;;;;5030011;28;20202;-80
2023/04/28 02:32:08;;;;;;;20.60;16.50;;;7.00;99.90;;;;;;5022850;28;20209;-80
2023/04/28 02:34:36;;;;;;;25.55;16.15;;;7.00;99.90;;;;;;5019955;28;20209;-81
2023/04/28 02:37:03;;;;;;;23.38;14.90;;;7.00;99.90;;;;;;5019428;28;20502;-83
2023/04/28 02:39:31;;;;;;;17.17;15.43;;;6.90;99.90;;;;;;5030306;28;20208;-80
2023/04/28 02:41:58;;;;;;;20.10;14.88;;;6.90;99.90;;;;;;5021716;28;20204;-80
2023/04/28 02:44:25;;;;;;;21.05;15.57;;;6.80;99.90;;;;;;5030066;28;20319;-79
2023/04/28 02:46:52;;;;;;;22.95;16.00;;;6.80;99.90;;;;;;5021463;28;20206;-80
2023/04/28 02:49:20;;;;;;;20.98;15.60;;;6.80;99.90;;;;;;5032409;28;20500;-81
2023/04/28 02:51:47;;;;;;;22.73;15.77;;;6.70;99.90;;;;;;5019029;28;20208;-80
2023/04/28 02:54:26;;;;;;;29.65;14.75;;;6.80;99.90;;;;;;5024640;28;20208;-81
2023/04/28 02:56:56;;;;;;;20.73;15.77;;;6.70;99.90;;;;;;5011292;28;20204;-81
2023/04/28 02:59:23;;;;;;;20.45;15.25;;;6.80;99.90;;;;;;5018514;28;20503;-82
2023/04/28 03:01:50;;;;;;;22.52;14.38;;;6.80;99.90;;;;;;5004654;28;20440;-81
2023/04/28 03:04:17;;;;;;;21.65;15.80;;;6.70;99.90;;;;;;5015365;28;20496;-82
2023/04/28 03:06:45;;;;;;;23.25;15.50;;;6.70;99.90;;;;;;5035067;28;20516;-81
2023/04/28 03:09:13;;;;;;;27.17;17.02;;;6.60;99.90;;;;;;5033540;28;20212;-81
2023/04/28 03:11:43;;;;;;;21.05;15.55;;;6.60;99.90;;;;;;5011322;28;20212;-79
2023/04/28 03:14:10;;;;;;;25.85;16.20;;;6.60;99.90;;;;;;5027559;28;20208;-81
2023/04/28 03:16:37;;;;;;;22.13;17.95;;;6.60;99.90;;;;;;5032984;28;20239;-80
2023/04/28 03:19:07;;;;;;;19.85;15.38;;;6.60;99.90;;;;;;5023181;28;20230;-82
2023/04/28 03:21:38;;;;;;;26.05;16.75;;;6.40;99.90;;;;;;5029173;28;20239;-80
2023/04/28 03:24:05;;;;;;;22.40;16.80;;;6.40;99.90;;;;;;5029986;28;20621;-82
2023/04/28 03:26:35;;;;;;;26.48;17.27;;;6.50;99.90;;;;;;5027592;28;20232;-80
2023/04/28 03:29:01;;;;;;;22.13;17.90;;;6.60;99.90;;;;;;5014559;28;20676;-82
2023/04/28 03:31:28;;;;;;;31.98;16.20;;;6.50;99.90;;;;;;5027282;28;20217;-79
2023/04/28 03:33:55;;;;;;;23.40;19.42;;;6.40;99.90;;;;;;5007979;28;20270;-79
2023/04/28 03:36:23;;;;;;;25.23;18.40;;;6.30;99.90;;;;;;5027146;28;20193;-80
2023/04/28 03:38:50;;;;;;;26.40;20.48;;;6.30;99.90;;;;;;5010816;28;20201;-81
2023/04/28 03:41:18;;;;;;;27.95;20.15;;;6.20;99.90;;;;;;5028695;28;20610;-85
2023/04/28 03:43:45;;;;;;;30.98;21.27;;;6.20;99.90;;;;;;5019187;28;20251;-80
2023/04/28 03:46:12;;;;;;;29.83;20.80;;;6.20;99.90;;;;;;5021049;28;20231;-82
2023/04/28 03:48:39;;;;;;;25.30;21.35;;;6.10;99.90;;;;;;5035785;28;20207;-81
2023/04/28 03:51:06;;;;;;;34.75;21.10;;;5.90;99.90;;;;;;5021599;28;20208;-80
2023/04/28 03:53:34;;;;;;;35.70;21.98;;;5.90;99.90;;;;;;5022681;28;20197;-79
2023/04/28 03:56:01;;;;;;;30.60;19.60;;;6.00;99.90;;;;;;5021380;28;20205;-83
2023/04/28 03:58:30;;;;;;;36.33;21.77;;;6.10;99.90;;;;;;5009929;28;20240;-82
2023/04/28 04:00:59;;;;;;;35.13;22.80;;;6.10;99.90;;;;;;5022539;28;20247;-79
2023/04/28 04:03:28;;;;;;;27.30;19.48;;;6.20;99.90;;;;;;5011114;28;20277;-79
2023/04/28 04:05:57;;;;;;;35.85;22.80;;;6.40;99.90;;;;;;5033294;28;20242;-80
2023/04/28 04:08:24;;;;;;;33.35;21.42;;;6.70;99.90;;;;;;5022607;28;20217;-80
2023/04/28 04:10:51;;;;;;;29.50;20.30;;;6.70;99.90;;;;;;5026773;28;20221;-81
2023/04/28 04:13:18;;;;;;;29.73;21.02;;;6.70;99.90;;;;;;5022476;28;20208;-84
2023/04/28 04:15:45;;;;;;;26.90;20.05;;;6.60;99.90;;;;;;5031580;28;20228;-78
2023/04/28 04:18:14;;;;;;;31.88;21.20;;;6.70;99.90;;;;;;5035759;28;20235;-79
2023/04/28 04:20:41;;;;;;;28.00;19.58;;;6.80;99.90;;;;;;5031785;28;20414;-80
2023/04/28 04:23:15;;;;;;;29.08;18.70;;;6.60;99.90;;;;;;5034672;28;20203;-80
2023/04/28 04:25:44;;;;;;;30.65;21.25;;;6.60;99.90;;;;;;5026968;28;20598;-82
2023/04/28 04:28:10;;;;;;;28.35;20.60;;;6.70;99.90;;;;;;5031986;28;20535;-82
2023/04/28 04:30:39;;;;;;;27.50;19.90;;;6.80;99.90;;;;;;5031163;28;20213;-85
2023/04/28 04:33:07;;;;;;;30.75;19.45;;;6.70;99.90;;;;;;5031620;28;20231;-80
2023/04/28 04:35:34;;;;;;;29.60;21.63;;;6.70;99.90;;;;;;5024056;28;20216;-80
2023/04/28 04:38:02;;;;;;;35.85;23.13;;;6.70;99.90;;;;;;5013522;28;20205;-82
2023/04/28 04:40:29;;;;;;;30.10;22.25;;;6.60;99.90;;;;;;5022271;28;20228;-81
2023/04/28 04:42:56;;;;;;;28.30;21.50;;;6.60;99.90;;;;;;5022503;28;20244;-82
2023/04/28 04:45:24;;;;;;;33.35;20.35;;;6.50;99.90;;;;;;5029202;28;20212;-81
2023/04/28 04:47:52;;;;;;;34.25;22.80;;;6.50;99.90;;;;;;5030759;28;20212;-81
2023/04/28 04:50:22;;;;;;;24.00;19.50;;;6.50;99.90;;;;;;5031764;28;20267;-81
2023/04/28 04:52:53;;;;;;;32.35;21.75;;;6.50;99.90;;;;;;5021700;28;20209;-81
2023/04/28 04:55:21;;;;;;;24.30;19.35;;;6.70;99.90;;;;;;5027003;28;20378;-79
2023/04/28 04:57:48;;;;;;;28.08;19.33;;;6.80;99.90;;;;;;5032746;28;20220;-80
2023/04/28 05:00:16;;;;;;;26.00;20.25;;;7.00;99.90;;;;;;5027962;28;20271;-82
2023/04/28 05:02:43;;;;;;;31.60;20.95;;;7.20;99.90;;;;;;5026759;28;20201;-82
2023/04/28 05:05:10;;;;;;;24.92;19.05;;;7.30;99.90;;;;;;5055419;28;20204;-80
2023/04/28 05:07:48;;;;;;;29.70;19.33;;;7.50;99.90;;;;;;5032562;28;20216;-82
2023/04/28 05:10:16;;;;;;;29.27;18.70;;;7.50;99.90;;;;;;5043473;28;20257;-83
2023/04/28 05:12:43;;;;;;;26.13;19.05;;;7.40;99.90;;;;;;5039014;28;20208;-81
2023/04/28 05:15:15;;;;;;;24.05;18.45;;;7.50;99.90;;;;;;5038165;28;20252;-84
2023/04/28 05:17:42;;;;;;;26.40;19.52;;;7.40;99.90;;;;;;5039970;28;20210;-83
2023/04/28 05:20:12;;;;;;;29.38;20.23;;;7.30;99.90;;;;;;5040558;28;20199;-87
2023/04/28 05:22:39;;;;;;;27.92;18.38;;;7.30;99.90;;;;;;5030781;28;20193;-85
2023/04/28 05:25:07;;;;;;;25.33;19.20;;;7.30;99.90;;;;;;5052924;28;20213;-81
2023/04/28 05:27:36;;;;;;;29.08;19.58;;;7.60;99.90;;;;;;5039316;28;20189;-84
2023/04/28 05:30:04;;;;;;;27.08;18.48;;;7.60;99.90;;;;;;5016503;28;20181;-87
2023/04/28 05:32:31;;;;;;;24.05;17.67;;;7.60;99.90;;;;;;5032414;28;20205;-83
2023/04/28 05:34:59;;;;;;;22.73;17.98;;;7.60;99.90;;;;;;5035745;28;20203;-81
2023/04/28 05:37:26;;;;;;;29.42;17.60;;;7.90;99.90;;;;;;5051624;28;20201;-82
2023/04/28 05:39:54;;;;;;;30.52;18.23;;;8.00;99.90;;;;;;5035783;28;20218;-81
2023/04/28 05:42:21;;;;;;;29.33;17.80;;;8.10;99.90;;;;;;5021898;28;20234;-84
2023/04/28 05:44:51;;;;;;;23.90;16.80;;;8.20;99.90;;;;;;5027202;28;20207;-81
2023/04/28 05:47:18;;;;;;;26.45;19.40;;;8.30;99.90;;;;;;5036907;28;20218;-82
2023/04/28 05:49:45;;;;;;;28.80;16.92;;;8.60;99.90;;;;;;5026403;28;20223;-81
2023/04/28 05:52:18;;;;;;;24.75;17.40;;;9.00;99.90;;;;;;5025709;28;20292;-84
2023/04/28 05:54:46;;;;;;;19.15;16.17;;;9.20;99.90;;;;;;5028102;28;20197;-81
2023/04/28 05:57:14;;;;;;;23.98;16.85;;;9.10;99.90;;;;;;5034309;28;20210;-84
2023/04/28 05:59:42;;;;;;;27.13;18.25;;;9.20;99.90;;;;;;5041045;28;20209;-81
2023/04/28 06:02:09;;;;;;;28.58;18.48;;;9.20;99.90;;;;;;5019578;28;20311;-82
2023/04/28 06:04:37;;;;;;;40.25;17.90;;;9.50;99.90;;;;;;5026438;28;20216;-81
2023/04/28 06:07:05;;;;;;;16.55;14.85;;;9.90;99.90;;;;;;5027209;28;20273;-85
2023/04/28 06:09:33;;;;;;;20.90;15.57;;;10.10;99.90;;;;;;5004057;28;20561;-82
2023/04/28 06:12:00;;;;;;;18.42;14.68;;;10.10;99.90;;;;;;5032167;28;20219;-83
2023/04/28 06:14:27;;;;;;;21.45;17.05;;;10.20;99.90;;;;;;5033143;28;20400;-85
2023/04/28 06:16:54;;;;;;;22.50;16.23;;;10.00;99.90;;;;;;5035937;28;20212;-85
2023/04/28 06:19:20;;;;;;;18.08;13.60;;;10.20;99.90;;;;;;5027084;28;20209;-83
2023/04/28 06:21:50;;;;;;;18.25;15.30;;;10.20;99.90;;;;;;5023102;28;20315;-84
2023/04/28 06:24:17;;;;;;;26.85;16.35;;;10.30;99.90;;;;;;5005436;28;20303;-83
2023/04/28 06:26:45;;;;;;;19.50;15.13;;;10.50;99.90;;;;;;5030474;28;20216;-84
2023/04/28 06:29:12;;;;;;;19.20;17.20;;;10.70;99.90;;;;;;5040025;28;20210;-83
2023/04/28 06:31:39;;;;;;;26.08;16.55;;;10.90;99.90;;;;;;5037366;28;20293;-82
2023/04/28 06:34:06;;;;;;;19.30;16.35;;;11.40;99.90;;;;;;5042319;28;20293;-82
2023/04/28 06:36:36;;;;;;;20.65;14.82;;;11.60;99.90;;;;;;5045321;28;20208;-81
2023/04/28 06:39:04;;;;;;;23.10;14.43;;;11.90;99.90;;;;;;5018108;28;20224;-82
2023/04/28 06:41:31;;;;;;;24.27;15.55;;;12.50;99.90;;;;;;5029824;28;20248;-83
2023/04/28 06:43:57;;;;;;;25.92;13.63;;;13.10;99.90;;;;;;5025363;28;20859;-84
2023/04/28 06:46:24;;;;;;;22.45;13.40;;;13.50;99.90;;;;;;5033020;28;20221;-83
2023/04/28 06:48:51;;;;;;;22.17;12.38;;;13.80;99.90;;;;;;5035408;28;20233;-84
2023/04/28 06:51:20;;;;;;;16.70;13.85;;;13.80;99.90;;;;;;5027510;28;20284;-86
2023/04/28 06:53:50;;;;;;;14.63;13.07;;;12.80;99.90;;;;;;5019472;28;20501;-86
2023/04/28 06:56:17;;;;;;;16.63;13.55;;;12.70;99.90;;;;;;5034194;28;20213;-84
2023/04/28 06:58:44;;;;;;;18.83;13.98;;;12.50;99.90;;;;;;5027993;28;20217;-86
2023/04/28 07:01:11;;;;;;;19.38;13.50;;;12.10;99.90;;;;;;5029692;28;20318;-83
2023/04/28 07:03:38;;;;;;;23.67;13.20;;;11.90;99.90;;;;;;5010375;28;20516;-82
2023/04/28 07:06:05;;;;;;;19.60;12.30;;;12.60;99.90;;;;;;5020352;28;20206;-85
2023/04/28 07:08:33;;;;;;;19.83;14.43;;;13.10;99.90;;;;;;5020250;28;20287;-83
2023/04/28 07:11:03;;;;;;;18.58;13.00;;;13.20;99.90;;;;;;5030812;28;20215;-83
2023/04/28 07:13:30;;;;;;;19.88;13.23;;;13.50;99.90;;;;;;5033455;28;20204;-83
2023/04/28 07:15:58;;;;;;;20.23;14.00;;;13.90;99.90;;;;;;5029430;28;20811;-86
2023/04/28 07:18:25;;;;;;;18.47;14.63;;;14.50;99.90;;;;;;5020819;28;20806;-81
2023/04/28 07:20:52;;;;;;;16.03;14.30;;;15.20;99.90;;;;;;5019253;28;20493;-85
2023/04/28 07:23:18;;;;;;;21.53;15.97;;;16.10;99.90;;;;;;5022528;28;20439;-83
2023/04/28 07:25:45;;;;;;;17.23;14.73;;;16.20;99.90;;;;;;5032691;28;20457;-83
2023/04/28 07:28:14;;;;;;;16.03;13.00;;;17.20;99.90;;;;;;5028133;28;20443;-85
2023/04/28 07:30:41;;;;;;;21.10;14.63;;;17.60;99.90;;;;;;5023159;28;20798;-83
2023/04/28 07:33:10;;;;;;;17.40;13.57;;;18.00;99.90;;;;;;5028713;28;20421;-83
2023/04/28 07:35:39;;;;;;;15.83;13.30;;;18.70;99.90;;;;;;5033816;28;20497;-81
2023/04/28 07:38:06;;;;;;;24.60;15.33;;;19.10;99.90;;;;;;5038720;28;20426;-84
2023/04/28 07:40:33;;;;;;;21.77;15.70;;;20.00;99.80;;;;;;5043114;28;20424;-83
2023/04/28 07:43:01;;;;;;;14.33;12.83;;;20.20;96.80;;;;;;5038383;28;20469;-87
2023/04/28 07:45:28;;;;;;;18.67;11.77;;;19.80;96.40;;;;;;5041404;28;20731;-87
2023/04/28 07:47:56;;;;;;;19.70;14.87;;;19.20;97.40;;;;;;5042783;28;20435;-86
2023/04/28 07:50:24;;;;;;;15.53;11.90;;;19.70;96.30;;;;;;5028332;28;20412;-82
2023/04/28 07:52:51;;;;;;;25.73;14.17;;;18.40;99.00;;;;;;5041695;28;20444;-82
2023/04/28 07:55:18;;;;;;;18.73;12.10;;;19.00;98.90;;;;;;5043354;28;20613;-88
2023/04/28 07:57:46;;;;;;;13.80;11.30;;;19.40;96.20;;;;;;5035010;28;20424;-84
2023/04/28 08:00:14;;;;;;;13.50;10.97;;;18.90;97.20;;;;;;5039647;28;20804;-85
2023/04/28 08:02:41;;;;;;;14.30;10.70;;;20.00;95.10;;;;;;5043679;28;20481;-85
2023/04/28 08:05:08;;;;;;;12.17;9.00;;;21.70;89.40;;;;;;5027480;28;20760;-86
2023/04/28 08:07:37;;;;;;;12.97;9.80;;;21.90;80.70;;;;;;5036002;28;20417;-86
2023/04/28 08:10:05;;;;;;;14.53;9.80;;;20.70;82.80;;;;;;5032303;28;20447;-82
2023/04/28 08:12:32;;;;;;;9.27;8.23;;;22.00;80.90;;;;;;5043473;28;20732;-85
2023/04/28 08:15:00;;;;;;;10.50;8.77;;;21.70;73.70;;;;;;5028666;28;20475;-86
2023/04/28 08:17:27;;;;;;;9.73;8.07;;;21.40;76.20;;;;;;5035733;28;20456;-86
2023/04/28 08:19:55;;;;;;;9.23;7.70;;;22.50;70.70;;;;;;5042839;28;20420;-84
2023/04/28 08:22:22;;;;;;;8.57;7.70;;;23.40;62.00;;;;;;5018471;28;20453;-86
2023/04/28 08:24:49;;;;;;;9.17;8.23;;;24.30;58.60;;;;;;5039668;28;20426;-88
2023/04/28 08:27:17;;;;;;;8.20;7.50;;;23.20;61.70;;;;;;5026103;28;20443;-83
2023/04/28 08:29:44;;;;;;;11.10;8.50;;;23.40;61.40;;;;;;5019058;28;20450;-84
2023/04/28 08:32:11;;;;;;;8.33;7.37;;;23.70;59.30;;;;;;5029794;28;20471;-85
2023/04/28 08:34:39;;;;;;;12.30;7.90;;;24.40;57.70;;;;;;5035773;28;20435;-81
2023/04/28 08:37:06;;;;;;;10.07;7.40;;;25.10;58.30;;;;;;5045760;28;20461;-84
2023/04/28 08:39:34;;;;;;;8.80;8.00;;;24.60;54.60;;;;;;5035198;28;20445;-83
2023/04/28 08:42:09;;;;;;;8.10;7.40;;;24.70;56.50;;;;;;5011823;28;20513;-84
2023/04/28 08:44:39;;;;;;;9.70;6.37;;;24.70;56.50;;;;;;5031820;28;20411;-84
2023/04/28 08:47:13;;;;;;;7.57;6.87;;;24.70;52.80;;;;;;5024429;28;20417;-86
2023/04/28 08:49:40;;;;;;;9.23;8.33;;;24.10;54.80;;;;;;5036237;28;20431;-82
2023/04/28 08:52:15;;;;;;;8.33;6.87;;;23.50;55.80;;;;;;5027693;28;20443;-83
2023/04/28 08:54:44;;;;;;;11.27;7.20;;;24.10;55.90;;;;;;5038465;28;20416;-83
2023/04/28 08:57:12;;;;;;;9.23;6.20;;;24.00;53.30;;;;;;5027313;28;20568;-85
2023/04/28 08:59:40;;;;;;;8.77;6.87;;;24.20;53.60;;;;;;5022519;28;20504;-84
2023/04/28 09:02:08;;;;;;;6.53;5.60;;;24.80;53.50;;;;;;5028328;28;20486;-82
2023/04/28 09:04:36;;;;;;;6.50;5.90;;;26.20;51.80;;;;;;5027059;28;20787;-87
2023/04/28 09:07:09;;;;;;;8.03;7.17;;;25.80;51.10;;;;;;5028855;28;20432;-85
2023/04/28 09:09:39;;;;;;;10.70;6.83;;;23.60;54.50;;;;;;5035447;28;20396;-83
2023/04/28 09:12:06;;;;;;;8.37;7.20;;;23.20;55.30;;;;;;5030815;28;20440;-85
2023/04/28 09:14:35;;;;;;;8.10;7.30;;;22.60;58.10;;;;;;5036960;28;20412;-82
2023/04/28 09:17:08;;;;;;;10.60;8.60;;;23.10;57.40;;;;;;5030678;28;20421;-86
2023/04/28 09:19:36;;;;;;;12.33;8.43;;;22.70;58.80;;;;;;5021358;28;20417;-82
2023/04/28 09:22:04;;;;;;;11.67;7.57;;;22.70;60.10;;;;;;5025369;28;20491;-85
2023/04/28 09:24:51;;;;;;;8.90;8.00;;;24.00;56.90;;;;;;5022637;28;20639;-85
2023/04/28 09:27:28;;;;;;;8.07;7.23;;;22.20;60.00;;;;;;5022325;28;20447;-84
2023/04/28 09:29:55;;;;;;;9.00;8.10;;;21.00;67.10;;;;;;5012585;28;20409;-83
2023/04/28 09:32:22;;;;;;;8.40;6.50;;;19.90;71.20;;;;;;5033908;28;20427;-82
2023/04/28 09:34:55;;;;;;;9.73;6.77;;;19.40;74.50;;;;;;5011661;28;20483;-83
2023/04/28 09:37:24;;;;;;;9.10;5.90;;;19.00;81.00;;;;;;5030936;28;20493;-84
2023/04/28 09:39:52;;;;;;;7.77;6.93;;;18.90;85.50;;;;;;5041558;28;20454;-86
2023/04/28 09:42:36;;;;;;;8.63;7.30;;;18.90;85.50;;;;;;5033330;28;20462;-82
2023/04/28 09:45:05;;;;;;;9.33;7.23;;;18.50;86.90;;;;;;5022559;28;20631;-85
2023/04/28 09:47:34;;;;;;;10.67;7.30;;;17.90;92.20;;;;;;5029041;28;20803;-85
2023/04/28 09:50:08;;;;;;;9.63;6.30;;;17.70;94.30;;;;;;5015858;28;20632;-82
2023/04/28 09:52:35;;;;;;;10.97;7.50;;;17.50;94.80;;;;;;5031098;28;20752;-85
2023/04/28 09:55:07;;;;;;;13.87;6.90;;;17.30;96.10;;;;;;5022634;28;20764;-82
2023/04/28 09:57:36;;;;;;;9.47;6.77;;;17.30;98.80;;;;;;5031088;28;20608;-84
2023/04/28 10:00:05;;;;;;;9.37;6.77;;;17.60;97.40;;;;;;5037113;28;20450;-81
2023/04/28 10:02:36;;;;;;;6.40;5.80;;;18.00;96.50;;;;;;5029971;28;20483;-82
2023/04/28 10:05:08;;;;;;;6.57;5.87;;;18.10;97.10;;;;;;5024358;28;20551;-82
2023/04/28 10:07:37;;;;;;;9.50;5.90;;;18.30;96.10;;;;;;5021507;28;20454;-84
2023/04/28 10:10:07;;;;;;;11.10;6.60;;;18.40;95.30;;;;;;5030286;28;20481;-82
2023/04/28 10:12:36;;;;;;;8.50;7.00;;;18.60;96.40;;;;;;5025209;28;20622;-83
2023/04/28 10:15:08;;;;;;;13.77;7.50;;;18.60;94.80;;;;;;5033911;28;20416;-84
2023/04/28 10:17:37;;;;;;;8.80;6.10;;;18.00;96.10;;;;;;5033412;28;20464;-83
2023/04/28 10:20:05;;;;;;;6.77;6.07;;;17.90;97.50;;;;;;5037605;28;20463;-81
2023/04/28 10:23:22;;;;;;;6.40;5.90;;;18.20;96.80;;;;;;5025718;28;20849;-82
2023/04/28 10:25:56;;;;;;;6.23;5.23;;;18.20;96.60;;;;;;5025464;28;20493;-83
2023/04/28 10:28:23;;;;;;;8.30;6.40;;;18.60;95.40;;;;;;4999454;28;20422;-82
2023/04/28 10:31:23;;;;;;;9.60;5.30;;;18.40;95.10;;;;;;5036975;28;20435;-82
2023/04/28 10:33:51;;;;;;;6.57;4.53;;;18.20;94.70;;;;;;4995448;28;20429;-81
2023/04/28 10:36:51;;;;;;;5.73;5.03;;;18.10;95.00;;;;;;5046737;28;20459;-81
2023/04/28 10:39:18;;;;;;;5.07;4.60;;;18.30;96.10;;;;;;5047772;28;20692;-82
2023/04/28 10:41:49;;;;;;;6.50;5.43;;;18.40;95.10;;;;;;5047082;28;20492;-84
2023/04/28 10:44:31;;;;;;;12.37;7.37;;;18.30;95.50;;;;;;5015518;28;20414;-83
2023/04/28 10:47:02;;;;;;;5.47;4.97;;;18.20;94.20;;;;;;5033343;28;20449;-86
2023/04/28 10:49:53;;;;;;;7.10;4.80;;;18.20;95.90;;;;;;5016084;28;20437;-80
2023/04/28 10:52:33;;;;;;;5.37;4.83;;;18.40;96.90;;;;;;5028758;28;20484;-83
2023/04/28 10:55:26;;;;;;;17.27;6.70;;;18.60;96.60;;;;;;5034412;28;20431;-83
2023/04/28 10:58:16;;;;;;;7.73;5.40;;;18.20;96.10;;;;;;5044758;28;20426;-86
2023/04/28 11:00:46;;;;;;;6.60;5.03;;;18.30;97.10;;;;;;5012274;28;20438;-80
2023/04/28 11:03:45;;;;;;;7.30;5.10;;;18.20;95.90;;;;;;5028976;28;20483;-84
2023/04/28 11:06:34;;;;;;;9.20;5.13;;;17.90;97.00;;;;;;5019710;28;20446;-86
2023/04/28 11:09:23;;;;;;;7.60;5.33;;;18.00;97.60;;;;;;5033253;28;20433;-84
2023/04/28 11:11:59;;;;;;;8.83;5.13;;;18.50;96.80;;;;;;5003378;28;20426;-83
2023/04/28 11:14:27;;;;;;;5.90;5.20;;;18.70;97.20;;;;;;5023235;28;20437;-84
2023/04/28 11:17:03;;;;;;;6.30;4.47;;;18.60;94.60;;;;;;5005755;28;20559;-86
2023/04/28 11:19:36;;;;;;;5.70;4.40;;;18.30;95.00;;;;;;5027808;28;20466;-86
2023/04/28 11:22:14;;;;;;;13.90;4.70;;;18.00;95.10;;;;;;5034614;28;20848;-86
2023/04/28 11:24:55;;;;;;;6.33;5.50;;;18.30;96.40;;;;;;5039201;28;20487;-85
2023/04/28 11:27:30;;;;;;;6.80;4.33;;;18.70;93.70;;;;;;5012316;28;20518;-83
2023/04/28 11:30:04;;;;;;;5.17;4.03;;;18.70;94.40;;;;;;5027175;28;20625;-83
2023/04/28 11:32:33;;;;;;;5.30;3.70;;;18.90;94.40;;;;;;5017106;28;20442;-86
2023/04/28 11:35:03;;;;;;;5.67;4.07;;;19.20;94.00;;;;;;5023062;28;20441;-84
2023/04/28 11:37:30;;;;;;;6.07;4.00;;;19.30;93.80;;;;;;5034371;28;20449;-83
2023/04/28 11:39:57;;;;;;;7.17;3.43;;;19.10;91.80;;;;;;5029209;28;20417;-83
2023/04/28 11:42:26;;;;;;;6.53;3.53;;;19.20;93.10;;;;;;5028909;28;20464;-85
2023/04/28 11:44:54;;;;;;;10.53;4.70;;;19.40;92.60;;;;;;5027505;28;20441;-82
2023/04/28 11:47:29;;;;;;;4.93;3.77;;;19.40;91.90;;;;;;5020363;28;20446;-86
2023/04/28 11:49:56;;;;;;;5.47;4.23;;;19.40;92.60;;;;;;5031024;28;20430;-82
2023/04/28 11:52:24;;;;;;;5.30;4.30;;;19.20;91.90;;;;;;5038948;28;20437;-84
2023/04/28 11:55:00;;;;;;;8.37;4.23;;;19.10;91.90;;;;;;5027293;28;20440;-83
2023/04/28 11:57:29;;;;;;;9.93;5.10;;;19.00;93.50;;;;;;5040470;28;20469;-82
2023/04/28 12:00:20;;;;;;;5.63;4.20;;;19.00;93.10;;;;;;5036197;28;20430;-80
2023/04/28 12:02:48;;;;;;;7.73;4.43;;;18.70;92.80;;;;;;5045827;28;20504;-84
2023/04/28 12:05:15;;;;;;;5.07;4.57;;;18.90;93.40;;;;;;5010691;28;20452;-82
2023/04/28 12:07:44;;;;;;;10.27;4.50;;;19.00;92.80;;;;;;5031187;28;20476;-85
2023/04/28 12:10:18;;;;;;;6.47;5.03;;;19.20;93.20;;;;;;5031859;28;20456;-82
2023/04/28 12:12:46;;;;;;;3.33;3.03;;;19.10;90.40;;;;;;5021576;28;20436;-85
2023/04/28 12:15:16;;;;;;;4.43;3.63;;;18.90;88.30;;;;;;5038401;28;20449;-85
2023/04/28 12:17:46;;;;;;;4.20;3.50;;;18.90;89.50;;;;;;5014313;28;20454;-82
2023/04/28 12:20:34;;;;;;;5.37;2.80;;;18.90;86.40;;;;;;5038377;28;20457;-85
2023/04/28 12:23:01;;;;;;;3.17;2.70;;;18.90;86.00;;;;;;5005237;28;20697;-85
2023/04/28 12:25:28;;;;;;;3.30;2.70;;;19.20;86.30;;;;;;5031862;28;20481;-89
2023/04/28 12:28:06;;;;;;;3.70;2.80;;;19.50;83.30;;;;;;5027261;28;20442;-84
2023/04/28 12:30:40;;;;;;;5.07;3.40;;;20.00;82.80;;;;;;5037069;28;20444;-85
2023/04/28 12:33:23;;;;;;;3.83;3.43;;;20.20;78.30;;;;;;5034361;28;20596;-83
2023/04/28 12:35:49;;;;;;;5.23;2.90;;;20.20;78.60;;;;;;5027892;28;20425;-83
2023/04/28 12:38:16;;;;;;;7.53;3.40;;;20.60;76.20;;;;;;5027283;28;20447;-84
2023/04/28 12:40:43;;;;;;;5.07;3.10;;;20.50;75.90;;;;;;5029481;28;20504;-85
2023/04/28 12:43:10;;;;;;;4.67;3.30;;;20.60;77.80;;;;;;5036014;28;20478;-83
2023/04/28 12:45:38;;;;;;;3.50;3.07;;;20.90;75.90;;;;;;5029836;28;20423;-87
2023/04/28 12:48:05;;;;;;;3.50;2.90;;;21.10;73.30;;;;;;5033454;28;20974;-83
2023/04/28 12:50:32;;;;;;;3.00;2.73;;;21.20;74.30;;;;;;5022078;28;20421;-82